createdAt,value
2023-04-05T00:00:46.681Z,83.14
2023-04-05T00:03:14.270Z,84.06
2023-04-05T00:05:41.725Z,84.46
2023-04-05T00:08:13.590Z,84.43
2023-04-05T00:10:41.270Z,85.37
2023-04-05T00:13:08.955Z,84.92
2023-04-05T00:15:36.361Z,85.86
2023-04-05T00:18:04.001Z,85.75
2023-04-05T00:20:31.484Z,85.68
2023-04-05T00:22:59.105Z,85.28
2023-04-05T00:25:26.467Z,85.90
2023-04-05T00:27:53.823Z,86.52
2023-04-05T00:30:21.407Z,86.70
2023-04-05T00:32:50.198Z,86.09
2023-04-05T00:35:18.054Z,85.71
2023-04-05T00:37:45.439Z,85.69
2023-04-05T00:40:12.915Z,85.51
2023-04-05T00:42:40.418Z,86.50
2023-04-05T00:45:08.176Z,86.78
2023-04-05T00:47:35.940Z,86.40
2023-04-05T00:50:03.748Z,86.20
2023-04-05T00:52:32.241Z,87.23
2023-04-05T00:54:59.693Z,87.12
2023-04-05T00:57:38.788Z,88.17
2023-04-05T01:00:09.558Z,88.21
2023-04-05T01:02:52.113Z,87.97
2023-04-05T01:05:27.702Z,88.49
2023-04-05T01:08:08.343Z,88.48
2023-04-05T01:10:44.684Z,89.36
2023-04-05T01:13:12.119Z,89.44
2023-04-05T01:15:39.495Z,88.58
2023-04-05T01:18:10.239Z,89.19
2023-04-05T01:20:44.833Z,89.00
2023-04-05T01:23:39.072Z,88.34
2023-04-05T01:26:30.526Z,89.88
2023-04-05T01:29:24.282Z,89.76
2023-04-05T01:32:07.843Z,89.07
2023-04-05T01:34:54.980Z,88.60
2023-04-05T01:37:27.973Z,89.17
2023-04-05T01:39:56.210Z,89.68
2023-04-05T01:42:26.160Z,88.98
2023-04-05T01:44:55.352Z,89.23
2023-04-05T01:47:22.878Z,88.68
2023-04-05T01:49:50.426Z,89.09
2023-04-05T01:52:17.882Z,88.35
2023-04-05T01:54:45.405Z,89.18
2023-04-05T01:57:12.772Z,88.84
2023-04-05T01:59:39.686Z,88.99
2023-04-05T02:02:07.071Z,88.18
2023-04-05T02:04:34.572Z,88.56
2023-04-05T02:07:03.000Z,90.51
2023-04-05T02:09:30.606Z,91.92
2023-04-05T02:11:57.933Z,92.78
2023-04-05T02:14:25.962Z,93.13
2023-04-05T02:16:56.676Z,93.12
2023-04-05T02:19:24.092Z,93.73
2023-04-05T02:21:53.710Z,93.41
2023-04-05T02:24:21.839Z,92.77
2023-04-05T02:26:48.855Z,91.91
2023-04-05T02:29:16.220Z,91.50
2023-04-05T02:31:43.426Z,91.21
2023-04-05T02:34:11.696Z,90.32
2023-04-05T02:36:39.019Z,89.53
2023-04-05T02:39:06.307Z,88.49
2023-04-05T02:41:33.728Z,88.03
2023-04-05T02:44:01.245Z,87.49
2023-04-05T02:46:28.543Z,86.75
2023-04-05T02:48:55.548Z,86.60
2023-04-05T02:51:22.991Z,86.57
2023-04-05T02:53:50.295Z,85.54
2023-04-05T02:56:17.376Z,85.12
2023-04-05T02:58:44.842Z,84.54
2023-04-05T03:01:12.827Z,84.62
2023-04-05T03:03:40.857Z,84.34
2023-04-05T03:06:11.025Z,84.31
2023-04-05T03:08:44.033Z,83.84
2023-04-05T03:11:11.587Z,84.07
2023-04-05T03:13:38.989Z,83.83
2023-04-05T03:16:06.713Z,83.36
2023-04-05T03:18:34.161Z,83.60
2023-04-05T03:21:01.580Z,83.18
2023-04-05T03:23:31.039Z,82.74
2023-04-05T03:25:58.020Z,82.88
2023-04-05T03:28:25.896Z,82.92
2023-04-05T03:30:53.600Z,82.79
2023-04-05T03:33:21.002Z,82.48
2023-04-05T03:35:48.646Z,82.91
2023-04-05T03:38:16.397Z,82.83
2023-04-05T03:40:43.873Z,82.24
2023-04-05T03:43:11.446Z,82.56
2023-04-05T03:45:39.028Z,82.03
2023-04-05T03:48:06.898Z,81.91
2023-04-05T03:50:34.281Z,82.16
2023-04-05T03:53:01.688Z,81.88
2023-04-05T03:55:29.098Z,81.73
2023-04-05T03:57:56.139Z,81.71
2023-04-05T04:00:24.651Z,82.03
2023-04-05T04:02:52.864Z,81.89
2023-04-05T04:05:21.399Z,81.69
2023-04-05T04:07:48.894Z,81.65
2023-04-05T04:10:17.891Z,82.03
2023-04-05T04:12:45.990Z,81.89
2023-04-05T04:15:13.334Z,82.00
2023-04-05T04:17:41.139Z,81.92
2023-04-05T04:20:11.966Z,81.74
2023-04-05T04:22:40.706Z,81.71
2023-04-05T04:25:12.797Z,81.60
2023-04-05T04:27:43.671Z,81.70
2023-04-05T04:30:13.347Z,81.51
2023-04-05T04:32:52.122Z,81.15
2023-04-05T04:35:29.197Z,81.31
2023-04-05T04:38:07.386Z,81.26
2023-04-05T04:40:39.341Z,81.25
2023-04-05T04:43:14.305Z,81.59
2023-04-05T04:45:42.056Z,81.96
2023-04-05T04:48:09.992Z,82.85
2023-04-05T04:50:37.795Z,82.82
2023-04-05T04:53:04.824Z,83.86
2023-04-05T04:55:33.541Z,84.08
2023-04-05T04:58:00.986Z,83.85
2023-04-05T05:00:28.368Z,84.63
2023-04-05T05:02:56.248Z,84.03
2023-04-05T05:05:23.753Z,84.08
2023-04-05T05:07:52.847Z,83.54
2023-04-05T05:10:20.668Z,83.37
2023-04-05T05:12:51.850Z,82.89
2023-04-05T05:15:19.665Z,82.97
2023-04-05T05:17:47.433Z,82.37
2023-04-05T05:20:14.840Z,81.91
2023-04-05T05:22:42.556Z,82.16
2023-04-05T05:25:10.045Z,82.31
2023-04-05T05:27:37.384Z,82.60
2023-04-05T05:30:05.844Z,82.42
2023-04-05T05:32:33.288Z,82.53
2023-04-05T05:35:00.859Z,82.09
2023-04-05T05:37:34.785Z,81.75
2023-04-05T05:40:02.266Z,81.83
2023-04-05T05:42:29.789Z,81.39
2023-04-05T05:44:57.117Z,81.62
2023-04-05T05:47:24.505Z,81.50
2023-04-05T05:49:51.985Z,81.19
2023-04-05T05:52:19.332Z,81.05
2023-04-05T05:54:47.392Z,80.69
2023-04-05T05:57:14.749Z,80.94
2023-04-05T05:59:42.221Z,80.88
2023-04-05T06:02:10.629Z,80.59
2023-04-05T06:04:38.106Z,80.94
2023-04-05T06:07:05.240Z,80.52
2023-04-05T06:09:35.381Z,80.59
2023-04-05T06:12:03.078Z,80.79
2023-04-05T06:14:30.533Z,81.02
2023-04-05T06:16:58.206Z,80.96
2023-04-05T06:19:25.544Z,80.50
2023-04-05T06:21:53.009Z,80.69
2023-04-05T06:24:21.041Z,81.01
2023-04-05T06:26:48.368Z,80.72
2023-04-05T06:29:16.061Z,80.12
2023-04-05T06:31:43.803Z,79.38
2023-04-05T06:34:11.426Z,79.32
2023-04-05T06:36:38.749Z,79.40
2023-04-05T06:39:06.151Z,79.33
2023-04-05T06:41:33.246Z,79.93
2023-04-05T06:44:04.676Z,79.74
2023-04-05T06:46:32.421Z,79.39
2023-04-05T06:49:03.012Z,79.51
2023-04-05T06:51:32.237Z,79.70
2023-04-05T06:53:59.711Z,79.53
2023-04-05T06:56:27.304Z,79.15
2023-04-05T06:58:55.766Z,78.59
2023-04-05T07:01:24.906Z,78.67
2023-04-05T07:03:53.414Z,77.87
2023-04-05T07:06:21.678Z,77.60
2023-04-05T07:08:53.645Z,77.21
2023-04-05T07:11:21.586Z,76.51
2023-04-05T07:13:48.899Z,76.32
2023-04-05T07:16:18.183Z,75.86
2023-04-05T07:18:45.769Z,74.78
2023-04-05T07:21:12.750Z,74.79
2023-04-05T07:23:40.154Z,74.68
2023-04-05T07:26:08.539Z,74.48
2023-04-05T07:28:36.523Z,74.36
2023-04-05T07:31:07.556Z,74.08
2023-04-05T07:33:35.023Z,74.20
2023-04-05T07:36:03.578Z,74.71
2023-04-05T07:38:31.036Z,74.07
2023-04-05T07:40:58.864Z,74.35
2023-04-05T07:43:26.468Z,74.74
2023-04-05T07:46:01.152Z,74.58
2023-04-05T07:48:28.577Z,74.28
2023-04-05T07:50:55.877Z,73.80
2023-04-05T07:53:23.359Z,73.93
2023-04-05T07:55:51.015Z,73.32
2023-04-05T07:58:18.335Z,73.14
2023-04-05T08:00:45.624Z,72.67
2023-04-05T08:03:13.083Z,72.62
2023-04-05T08:05:40.889Z,71.92
2023-04-05T08:08:11.138Z,70.50
2023-04-05T08:10:41.373Z,70.56
2023-04-05T08:13:08.870Z,69.96
2023-04-05T08:15:36.583Z,69.69
2023-04-05T08:18:04.157Z,69.19
2023-04-05T08:20:31.645Z,67.54
2023-04-05T08:22:58.999Z,67.19
2023-04-05T08:25:26.401Z,67.25
2023-04-05T08:27:54.049Z,66.92
2023-04-05T08:30:22.028Z,66.59
2023-04-05T08:32:49.513Z,65.89
2023-04-05T08:35:16.955Z,66.10
2023-04-05T08:37:44.487Z,66.14
2023-04-05T08:40:12.879Z,64.83
2023-04-05T08:43:04.555Z,63.59
2023-04-05T08:45:34.358Z,64.26
2023-04-05T08:48:01.898Z,63.10
2023-04-05T08:50:29.398Z,62.89
2023-04-05T08:52:56.816Z,62.49
2023-04-05T08:55:24.840Z,62.97
2023-04-05T08:57:59.150Z,62.36
2023-04-05T09:00:27.522Z,62.02
2023-04-05T09:02:58.694Z,60.34
2023-04-05T09:05:26.999Z,60.29
2023-04-05T09:07:55.526Z,60.24
2023-04-05T09:10:23.646Z,60.19
2023-04-05T09:12:53.217Z,59.39
2023-04-05T09:15:24.335Z,59.07
2023-04-05T09:17:51.942Z,59.04
2023-04-05T09:20:19.716Z,57.96
2023-04-05T09:22:47.490Z,58.40
2023-04-05T09:25:42.607Z,56.46
2023-04-05T09:28:10.355Z,57.43
2023-04-05T09:30:38.162Z,57.46
2023-04-05T09:33:10.512Z,56.42
2023-04-05T09:35:38.403Z,55.07
2023-04-05T09:38:06.143Z,55.50
2023-04-05T09:40:47.662Z,54.32
2023-04-05T09:43:42.105Z,54.67
2023-04-05T09:46:33.969Z,52.99
2023-04-05T09:49:03.865Z,53.19
2023-04-05T09:51:38.436Z,52.30
2023-04-05T09:54:10.784Z,52.48
2023-04-05T09:56:40.892Z,52.96
2023-04-05T09:59:12.478Z,51.70
2023-04-05T10:01:44.461Z,52.09
2023-04-05T10:04:11.896Z,51.44
2023-04-05T10:06:43.161Z,51.55
2023-04-05T10:09:12.117Z,50.20
2023-04-05T10:11:39.910Z,50.01
2023-04-05T10:14:08.792Z,50.53
2023-04-05T10:17:16.645Z,50.44
2023-04-05T10:20:17.146Z,50.27
2023-04-05T10:23:10.206Z,50.36
2023-04-05T10:25:53.184Z,48.97
2023-04-05T10:28:34.703Z,48.98
2023-04-05T10:31:46.343Z,49.62
2023-04-05T10:34:42.756Z,47.77
2023-04-05T10:37:23.662Z,48.25
2023-04-05T10:39:51.329Z,48.74
2023-04-05T10:42:36.538Z,47.82
2023-04-05T10:45:10.069Z,49.47
2023-04-05T10:47:43.529Z,49.52
2023-04-05T10:50:18.391Z,48.12
2023-04-05T10:52:47.354Z,47.71
2023-04-05T10:55:16.144Z,47.99
2023-04-05T10:57:45.668Z,48.46
2023-04-05T11:00:15.872Z,47.56
2023-04-05T11:02:43.617Z,47.82
2023-04-05T11:05:32.674Z,45.99
2023-04-05T11:08:12.692Z,47.57
2023-04-05T11:10:40.222Z,46.21
2023-04-05T11:13:09.189Z,47.42
2023-04-05T11:15:36.955Z,47.11
2023-04-05T11:18:22.772Z,46.31
2023-04-05T11:21:07.688Z,47.00
2023-04-05T11:24:07.281Z,46.00
2023-04-05T11:26:56.723Z,45.90
2023-04-05T11:29:50.775Z,44.91
2023-04-05T11:32:18.350Z,44.64
2023-04-05T11:34:45.669Z,46.09
2023-04-05T11:37:15.808Z,43.94
2023-04-05T11:39:42.758Z,46.28
2023-04-05T11:42:13.174Z,45.04
2023-04-05T11:44:49.607Z,44.79
2023-04-05T11:47:23.436Z,46.19
2023-04-05T11:49:52.107Z,44.37
2023-04-05T11:52:21.524Z,43.46
2023-04-05T11:54:49.393Z,44.78
2023-04-05T11:57:22.912Z,44.25
2023-04-05T11:59:52.474Z,42.42
2023-04-05T12:02:20.502Z,44.39
2023-04-05T12:04:57.082Z,44.79
2023-04-05T12:07:36.966Z,41.08
2023-04-05T12:10:19.587Z,40.88
2023-04-05T12:12:48.884Z,42.95
2023-04-05T12:15:19.032Z,41.15
2023-04-05T12:17:51.847Z,41.80
2023-04-05T12:20:24.670Z,41.84
2023-04-05T12:22:57.302Z,41.33
2023-04-05T12:25:24.973Z,41.18
2023-04-05T12:27:53.346Z,40.90
2023-04-05T12:30:23.359Z,40.29
2023-04-05T12:32:55.384Z,40.23
2023-04-05T12:35:27.135Z,39.66
2023-04-05T12:37:54.636Z,37.62
2023-04-05T12:40:23.521Z,38.09
2023-04-05T12:42:51.214Z,38.70
2023-04-05T12:45:18.893Z,39.63
2023-04-05T12:50:30.798Z,39.40
2023-04-05T12:53:02.078Z,38.67
2023-04-05T12:55:30.608Z,38.43
2023-04-05T12:58:02.448Z,35.52
2023-04-05T13:00:31.066Z,35.66
2023-04-05T13:02:59.818Z,35.86
2023-04-05T13:05:30.920Z,38.68
2023-04-05T13:07:58.979Z,39.11
2023-04-05T13:10:26.468Z,37.98
2023-04-05T13:12:53.498Z,36.81
2023-04-05T13:15:20.920Z,36.54
2023-04-05T13:17:50.306Z,36.82
2023-04-05T13:20:18.414Z,39.28
2023-04-05T13:22:46.588Z,38.05
2023-04-05T13:25:16.150Z,39.53
2023-04-05T13:27:43.396Z,39.17
2023-04-05T13:30:11.000Z,38.85
2023-04-05T13:32:38.059Z,37.98
2023-04-05T13:35:06.009Z,38.45
2023-04-05T13:37:33.167Z,37.81
2023-04-05T13:40:03.449Z,36.86
2023-04-05T13:42:31.124Z,38.70
2023-04-05T13:44:58.461Z,37.96
2023-04-05T13:47:25.566Z,38.44
2023-04-05T13:49:52.528Z,38.32
2023-04-05T13:52:19.451Z,37.43
2023-04-05T13:54:46.503Z,36.67
2023-04-05T13:57:14.637Z,37.82
2023-04-05T13:59:41.794Z,39.18
2023-04-05T14:02:09.194Z,38.84
2023-04-05T14:04:36.598Z,37.77
2023-04-05T14:07:04.260Z,38.34
2023-04-05T14:09:32.638Z,39.04
2023-04-05T14:12:02.555Z,37.93
2023-04-05T14:14:30.171Z,36.99
2023-04-05T14:16:57.602Z,38.69
2023-04-05T14:19:25.063Z,37.72
2023-04-05T14:21:52.633Z,37.57
2023-04-05T14:24:20.075Z,37.78
2023-04-05T14:26:49.841Z,37.93
2023-04-05T14:29:19.140Z,36.49
2023-04-05T14:31:46.744Z,36.32
2023-04-05T14:34:14.271Z,37.36
2023-04-05T14:36:41.917Z,36.59
2023-04-05T14:39:09.020Z,34.72
2023-04-05T14:41:36.580Z,36.42
2023-04-05T14:44:03.974Z,34.77
2023-04-05T14:46:31.372Z,35.85
2023-04-05T14:48:58.824Z,34.80
2023-04-05T14:51:26.912Z,35.07
2023-04-05T14:53:54.264Z,33.76
2023-04-05T14:56:21.882Z,34.96
2023-04-05T14:58:49.323Z,36.43
2023-04-05T15:01:16.614Z,35.25
2023-04-05T15:03:44.229Z,35.56
2023-04-05T15:06:11.424Z,34.43
2023-04-05T15:08:38.804Z,36.14
2023-04-05T15:11:06.264Z,35.82
2023-04-05T15:13:33.984Z,34.08
2023-04-05T15:16:01.493Z,35.43
2023-04-05T15:18:28.567Z,34.55
2023-04-05T15:20:55.914Z,34.91
2023-04-05T15:23:23.132Z,35.98
2023-04-05T15:25:50.752Z,34.68
2023-04-05T15:28:18.137Z,36.18
2023-04-05T15:30:45.969Z,36.28
2023-04-05T15:33:13.484Z,35.56
2023-04-05T15:35:41.490Z,36.79
2023-04-05T15:38:08.536Z,38.38
2023-04-05T15:40:36.448Z,37.89
2023-04-05T15:43:03.842Z,36.37
2023-04-05T15:45:31.810Z,38.45
2023-04-05T15:47:59.296Z,36.36
2023-04-05T15:50:27.159Z,37.17
2023-04-05T15:52:54.617Z,38.15
2023-04-05T15:55:21.729Z,38.18
2023-04-05T15:57:53.722Z,36.76
2023-04-05T16:00:22.585Z,37.66
2023-04-05T16:02:52.893Z,36.50
2023-04-05T16:05:22.268Z,37.59
2023-04-05T16:07:49.317Z,36.70
2023-04-05T16:10:19.912Z,36.79
2023-04-05T16:12:47.456Z,38.27
2023-04-05T16:15:14.862Z,36.99
2023-04-05T16:17:42.411Z,38.01
2023-04-05T16:20:10.712Z,36.88
2023-04-05T16:22:38.276Z,37.18
2023-04-05T16:25:06.280Z,37.33
2023-04-05T16:30:10.447Z,36.04
2023-04-05T16:32:38.554Z,37.62
2023-04-05T16:35:06.480Z,35.74
2023-04-05T16:37:34.088Z,37.31
2023-04-05T16:40:02.947Z,36.79
2023-04-05T16:42:30.684Z,37.04
2023-04-05T16:44:58.348Z,36.20
2023-04-05T16:47:28.782Z,37.77
2023-04-05T16:49:56.630Z,38.72
2023-04-05T16:52:24.359Z,37.50
2023-04-05T16:54:52.840Z,37.72
2023-04-05T16:57:20.530Z,38.97
2023-04-05T16:59:48.003Z,38.75
2023-04-05T17:02:16.220Z,37.67
2023-04-05T17:04:44.294Z,38.18
2023-04-05T17:07:12.336Z,39.18
2023-04-05T17:09:40.092Z,38.72
2023-04-05T17:12:10.796Z,39.13
2023-04-05T17:14:40.160Z,39.98
2023-04-05T17:17:13.820Z,39.22
2023-04-05T17:19:44.089Z,39.47
2023-04-05T17:22:14.012Z,40.25
2023-04-05T17:24:41.621Z,40.08
2023-04-05T17:27:10.711Z,41.30
2023-04-05T17:29:38.499Z,40.27
2023-04-05T17:32:06.694Z,40.01
2023-04-05T17:34:37.211Z,41.41
2023-04-05T17:37:04.633Z,42.13
2023-04-05T17:39:32.098Z,42.30
2023-04-05T17:41:59.165Z,41.54
2023-04-05T17:44:26.340Z,43.65
2023-04-05T17:47:01.624Z,44.33
2023-04-05T17:49:37.617Z,44.92
2023-04-05T17:52:08.719Z,43.95
2023-04-05T17:54:39.416Z,44.32
2023-04-05T17:57:12.871Z,43.82
2023-04-05T17:59:43.344Z,44.88
2023-04-05T18:02:11.304Z,45.70
2023-04-05T18:04:40.369Z,48.12
2023-04-05T18:07:08.920Z,45.89
2023-04-05T18:09:38.555Z,46.88
2023-04-05T18:12:06.399Z,49.97
2023-04-05T18:14:36.343Z,48.63
2023-04-05T18:17:09.787Z,49.14
2023-04-05T18:19:39.743Z,49.13
2023-04-05T18:22:07.388Z,50.39
2023-04-05T18:24:34.989Z,51.32
2023-04-05T18:27:02.671Z,52.67
2023-04-05T18:29:30.915Z,53.64
2023-04-05T18:31:58.390Z,52.63
2023-04-05T18:34:26.254Z,51.19
2023-04-05T18:36:53.665Z,51.23
2023-04-05T18:39:21.162Z,51.38
2023-04-05T18:41:48.563Z,52.61
2023-04-05T18:44:16.499Z,52.86
2023-04-05T18:46:45.123Z,53.16
2023-04-05T18:49:15.781Z,53.33
2023-04-05T18:51:43.363Z,55.32
2023-04-05T18:54:11.053Z,57.06
2023-04-05T18:56:38.468Z,57.46
2023-04-05T18:59:06.171Z,57.96
2023-04-05T19:01:33.794Z,58.22
2023-04-05T19:04:01.371Z,59.02
2023-04-05T19:06:30.036Z,59.62
2023-04-05T19:08:57.475Z,60.46
2023-04-05T19:11:25.062Z,60.22
2023-04-05T19:13:53.982Z,59.83
2023-04-05T19:16:21.609Z,59.86
2023-04-05T19:18:49.043Z,59.67
2023-04-05T19:21:17.158Z,60.02
2023-04-05T19:23:44.578Z,60.15
2023-04-05T19:26:12.396Z,61.10
2023-04-05T19:28:39.878Z,63.23
2023-04-05T19:31:08.094Z,63.93
2023-04-05T19:33:35.696Z,63.82
2023-04-05T19:36:03.145Z,63.83
2023-04-05T19:38:36.516Z,62.86
2023-04-05T19:41:04.006Z,61.72
2023-04-05T19:43:31.847Z,62.54
2023-04-05T19:46:00.931Z,63.05
2023-04-05T19:48:42.627Z,63.92
2023-04-05T19:51:15.108Z,65.67
2023-04-05T19:53:48.555Z,63.18
2023-04-05T19:56:30.014Z,64.74
2023-04-05T19:59:01.394Z,64.94
2023-04-05T20:01:37.939Z,64.46
2023-04-05T20:04:18.873Z,63.98
2023-04-05T20:06:57.004Z,63.62
2023-04-05T20:09:26.992Z,63.10
2023-04-05T20:12:03.608Z,63.62
2023-04-05T20:14:46.461Z,63.60
2023-04-05T20:17:15.957Z,63.39
2023-04-05T20:19:57.357Z,63.05
2023-04-05T20:22:26.143Z,63.09
2023-04-05T20:24:53.507Z,62.66
2023-04-05T20:27:21.023Z,63.55
2023-04-05T20:29:48.494Z,64.84
2023-04-05T20:32:17.781Z,65.65
2023-04-05T20:34:46.151Z,65.41
2023-04-05T20:37:13.621Z,66.65
2023-04-05T20:39:41.156Z,66.21
2023-04-05T20:42:09.954Z,65.88
2023-04-05T20:44:37.307Z,65.63
2023-04-05T20:47:04.529Z,65.16
2023-04-05T20:49:31.948Z,65.91
2023-04-05T20:51:59.801Z,66.44
2023-04-05T20:54:27.384Z,66.73
2023-04-05T20:56:54.821Z,67.29
2023-04-05T20:59:22.463Z,67.36
2023-04-05T21:01:50.105Z,66.53
2023-04-05T21:04:17.186Z,66.09
2023-04-05T21:06:44.572Z,65.71
2023-04-05T21:09:12.086Z,67.17
2023-04-05T21:11:39.583Z,67.44
2023-04-05T21:14:07.024Z,68.25
2023-04-05T21:16:34.559Z,66.47
2023-04-05T21:19:02.056Z,67.26
2023-04-05T21:21:29.454Z,67.96
2023-04-05T21:23:56.842Z,69.04
2023-04-05T21:26:23.915Z,67.92
2023-04-05T21:28:51.349Z,67.51
2023-04-05T21:31:18.826Z,69.13
2023-04-05T21:33:46.236Z,69.62
2023-04-05T21:36:14.210Z,70.32
2023-04-05T21:38:41.641Z,69.99
2023-04-05T21:41:08.737Z,69.88
2023-04-05T21:43:36.362Z,69.37
2023-04-05T21:46:03.791Z,70.40
2023-04-05T21:48:31.196Z,71.03
2023-04-05T21:50:58.657Z,71.27
2023-04-05T21:53:26.123Z,71.47
2023-04-05T21:55:53.559Z,72.97
2023-04-05T21:58:21.094Z,72.96
2023-04-05T22:00:48.504Z,73.13
2023-04-05T22:03:16.105Z,73.37
2023-04-05T22:05:43.527Z,73.70
2023-04-05T22:08:11.300Z,73.43
2023-04-05T22:10:38.859Z,74.32
2023-04-05T22:13:06.335Z,74.03
2023-04-05T22:15:33.719Z,74.62
2023-04-05T22:18:01.965Z,75.05
2023-04-05T22:20:29.434Z,74.75
2023-04-05T22:22:57.006Z,74.98
2023-04-05T22:25:26.357Z,75.84
2023-04-05T22:27:59.744Z,75.23
2023-04-05T22:30:37.228Z,75.73
2023-04-05T22:33:12.902Z,75.31
2023-04-05T22:35:41.125Z,75.62
2023-04-05T22:38:08.572Z,75.48
2023-04-05T22:40:36.146Z,75.46
2023-04-05T22:43:03.575Z,76.89
2023-04-05T22:45:31.175Z,76.81
2023-04-05T22:47:58.672Z,75.86
2023-04-05T22:50:26.223Z,76.38
2023-04-05T22:52:53.740Z,77.59
2023-04-05T22:55:21.320Z,77.69
2023-04-05T22:57:49.663Z,77.70
2023-04-05T23:00:18.356Z,76.98
2023-04-05T23:02:45.677Z,77.62
2023-04-05T23:05:13.335Z,78.21
2023-04-05T23:07:41.064Z,77.58
2023-04-05T23:10:09.108Z,76.23
2023-04-05T23:12:36.898Z,77.39
2023-04-05T23:15:04.854Z,78.02
2023-04-05T23:17:32.494Z,76.93
2023-04-05T23:19:59.815Z,75.85
2023-04-05T23:22:27.618Z,75.56
2023-04-05T23:24:54.998Z,75.89
2023-04-05T23:27:23.016Z,76.78
2023-04-05T23:29:50.242Z,76.88
2023-04-05T23:32:18.030Z,76.98
2023-04-05T23:34:45.367Z,77.65
2023-04-05T23:37:13.086Z,78.04
2023-04-05T23:39:40.853Z,79.52
2023-04-05T23:42:08.932Z,80.29
2023-04-05T23:44:37.705Z,80.92
2023-04-05T23:47:07.914Z,81.03
2023-04-05T23:49:35.702Z,81.81
2023-04-05T23:52:03.467Z,81.98
2023-04-05T23:54:30.725Z,81.80
2023-04-05T23:56:58.078Z,82.72
2023-04-05T23:59:25.986Z,83.45
